Terminal Aerodrome Forecast
Issued by NWS

Current Version | Previous Version | Text Only | Print | Product List | Glossary On
Versions: 1 2 3 4 5 6 7 8 9 10 11 12 13 14 15 16 17 18 19
000
FTAK31 PAFA 242336
TAFAOM
TAF
PAOM 242336Z 2500/2524 20009KT P6SM VCSH OVC007
     FM250400 16007KT P6SM VCSH SCT007 BKN015 OVC050
     FM250800 16008KT 4SM -RA BR BKN007 OVC015
     FM251000 15008KT 2SM -RA BR OVC004=

USA.gov is the U.S. government's official web portal to all federal, state and local government web resources and services.